TSO105 ULLI-UUWW
Flight info
| Callsign | TSO105 |
|---|---|
| Flight time | 1h 18m |
| Altitude | 35000 |
| Route | K0885F350 SUGIN1B SUGIN T873 NIRGI T73 DESUD T834 ADOKU/K0845F270 T834 BEKIP BEKIP3B |
| Aircraft | A346/H-SDE2E3FGHIJ3J4J5M1RWXY/LB1D1 |
Departure
| Time | 2026-05-07 20:20 |
|---|---|
| Airport | Pulkovo Airport (ULLI) |
Arrival
| Time | 2026-05-07 21:38 |
|---|---|
| Airport | Vnukovo International Airport (UUWW) |
| Time | Latitude | Longitude | Altitude | Speed | Heading |
|---|---|---|---|---|---|
| 2026-05-07 20:03 | 59.79664 | 30.25868 | 99 ft | 0 kts | 287° |
| 2026-05-07 20:05 | 59.79664 | 30.25869 | 99 ft | 0 kts | 287° |
| 2026-05-07 20:10 | 59.79663 | 30.25877 | 99 ft | 2 kts | 287° |
| 2026-05-07 20:10 | 59.79659 | 30.25905 | 99 ft | 2 kts | 287° |
| 2026-05-07 20:10 | 59.79654 | 30.25933 | 98 ft | 2 kts | 286° |
| 2026-05-07 20:11 | 59.79652 | 30.25951 | 98 ft | 2 kts | 285° |
| 2026-05-07 20:11 | 59.79649 | 30.25980 | 98 ft | 2 kts | 264° |
| 2026-05-07 20:11 | 59.79653 | 30.26009 | 98 ft | 2 kts | 245° |
| 2026-05-07 20:11 | 59.79661 | 30.26035 | 98 ft | 2 kts | 227° |
| 2026-05-07 20:12 | 59.79672 | 30.26055 | 98 ft | 2 kts | 210° |
| 2026-05-07 20:12 | 59.79682 | 30.26064 | 97 ft | 0 kts | 197° |
| 2026-05-07 20:12 | 59.79687 | 30.26067 | 97 ft | 0 kts | 196° |
| 2026-05-07 20:15 | 59.79685 | 30.26066 | 97 ft | 1 kts | 196° |
| 2026-05-07 20:15 | 59.79666 | 30.26055 | 98 ft | 4 kts | 200° |
| 2026-05-07 20:16 | 59.79632 | 30.26026 | 98 ft | 6 kts | 203° |
| 2026-05-07 20:16 | 59.79575 | 30.26014 | 97 ft | 8 kts | 157° |
| 2026-05-07 20:16 | 59.79534 | 30.26131 | 96 ft | 12 kts | 110° |
| 2026-05-07 20:16 | 59.79505 | 30.26315 | 95 ft | 14 kts | 105° |
| 2026-05-07 20:17 | 59.79475 | 30.26522 | 95 ft | 16 kts | 105° |
| 2026-05-07 20:17 | 59.79442 | 30.26751 | 96 ft | 17 kts | 106° |
| 2026-05-07 20:17 | 59.79408 | 30.26988 | 97 ft | 18 kts | 106° |
| 2026-05-07 20:17 | 59.79371 | 30.27235 | 98 ft | 19 kts | 106° |
| 2026-05-07 20:18 | 59.79332 | 30.27495 | 99 ft | 19 kts | 107° |
| 2026-05-07 20:18 | 59.79292 | 30.27764 | 99 ft | 21 kts | 107° |
| 2026-05-07 20:18 | 59.79253 | 30.28020 | 99 ft | 14 kts | 106° |
| 2026-05-07 20:18 | 59.79204 | 30.28203 | 98 ft | 15 kts | 144° |
| 2026-05-07 20:19 | 59.79099 | 30.28260 | 99 ft | 14 kts | 191° |
| 2026-05-07 20:19 | 59.79063 | 30.28120 | 99 ft | 13 kts | 273° |
| 2026-05-07 20:19 | 59.79067 | 30.28073 | 99 ft | 0 kts | 282° |
| 2026-05-07 20:19 | 59.79092 | 30.27874 | 100 ft | 51 kts | 284° |
| 2026-05-07 20:20 | 59.79275 | 30.26627 | 97 ft | 133 kts | 287° |
| 2026-05-07 20:20 | 59.79606 | 30.24450 | 168 ft | 190 kts | 287° |
| 2026-05-07 20:20 | 59.79992 | 30.21840 | 741 ft | 205 kts | 287° |
| 2026-05-07 20:20 | 59.80383 | 30.19136 | 1708 ft | 207 kts | 288° |
| 2026-05-07 20:21 | 59.80768 | 30.16477 | 2629 ft | 201 kts | 289° |
| 2026-05-07 20:21 | 59.81175 | 30.13749 | 3088 ft | 216 kts | 289° |
| 2026-05-07 20:21 | 59.81617 | 30.10785 | 3496 ft | 234 kts | 289° |
| 2026-05-07 20:21 | 59.82093 | 30.07566 | 4005 ft | 250 kts | 289° |
| 2026-05-07 20:22 | 59.82578 | 30.04255 | 4900 ft | 251 kts | 289° |
| 2026-05-07 20:22 | 59.82942 | 30.00882 | 5763 ft | 256 kts | 270° |
| 2026-05-07 20:22 | 59.82422 | 29.97570 | 6545 ft | 263 kts | 234° |
| 2026-05-07 20:22 | 59.81018 | 29.95316 | 7357 ft | 266 kts | 200° |
| 2026-05-07 20:23 | 59.79256 | 29.94331 | 8168 ft | 267 kts | 194° |
| 2026-05-07 20:23 | 59.77446 | 29.93432 | 8949 ft | 270 kts | 195° |
| 2026-05-07 20:23 | 59.75601 | 29.92745 | 9707 ft | 274 kts | 178° |
| 2026-05-07 20:23 | 59.73779 | 29.93797 | 10423 ft | 277 kts | 146° |
| 2026-05-07 20:24 | 59.72438 | 29.96530 | 10952 ft | 287 kts | 116° |
| 2026-05-07 20:24 | 59.71791 | 30.00344 | 11341 ft | 301 kts | 102° |
| 2026-05-07 20:24 | 59.71270 | 30.04462 | 11671 ft | 319 kts | 103° |
| 2026-05-07 20:24 | 59.70679 | 30.08839 | 12007 ft | 337 kts | 104° |
| 2026-05-07 20:25 | 59.70080 | 30.13419 | 12324 ft | 355 kts | 101° |
| 2026-05-07 20:25 | 59.69671 | 30.18322 | 12640 ft | 372 kts | 95° |
| 2026-05-07 20:25 | 59.69499 | 30.23567 | 12945 ft | 389 kts | 91° |
| 2026-05-07 20:25 | 59.69399 | 30.28995 | 13311 ft | 404 kts | 92° |
| 2026-05-07 20:26 | 59.69159 | 30.34520 | 13926 ft | 411 kts | 96° |
| 2026-05-07 20:26 | 59.68719 | 30.40147 | 14576 ft | 417 kts | 100° |
| 2026-05-07 20:26 | 59.68133 | 30.45820 | 15232 ft | 422 kts | 102° |
| 2026-05-07 20:26 | 59.67518 | 30.51507 | 15885 ft | 428 kts | 102° |
| 2026-05-07 20:27 | 59.66894 | 30.57230 | 16496 ft | 433 kts | 102° |
| 2026-05-07 20:27 | 59.66256 | 30.63102 | 17101 ft | 439 kts | 102° |
| 2026-05-07 20:27 | 59.65633 | 30.68987 | 17694 ft | 444 kts | 102° |
| 2026-05-07 20:27 | 59.65115 | 30.74968 | 18258 ft | 450 kts | 101° |
| 2026-05-07 20:28 | 59.64608 | 30.81150 | 18827 ft | 455 kts | 101° |
| 2026-05-07 20:28 | 59.64104 | 30.87325 | 19392 ft | 459 kts | 101° |
| 2026-05-07 20:28 | 59.63593 | 30.93533 | 19935 ft | 464 kts | 101° |
| 2026-05-07 20:28 | 59.63087 | 30.99603 | 20419 ft | 469 kts | 102° |
| 2026-05-07 20:29 | 59.62549 | 31.06008 | 20943 ft | 474 kts | 102° |
| 2026-05-07 20:29 | 59.62009 | 31.12380 | 21442 ft | 478 kts | 102° |
| 2026-05-07 20:29 | 59.61456 | 31.18854 | 21918 ft | 483 kts | 102° |
| 2026-05-07 20:29 | 59.60891 | 31.25432 | 22404 ft | 487 kts | 102° |
| 2026-05-07 20:30 | 59.60321 | 31.32027 | 22858 ft | 492 kts | 102° |
| 2026-05-07 20:30 | 59.59743 | 31.38659 | 23327 ft | 496 kts | 103° |
| 2026-05-07 20:30 | 59.59153 | 31.45397 | 23781 ft | 500 kts | 103° |
| 2026-05-07 20:30 | 59.58561 | 31.52112 | 24243 ft | 504 kts | 103° |
| 2026-05-07 20:31 | 59.57949 | 31.58984 | 24693 ft | 509 kts | 103° |
| 2026-05-07 20:31 | 59.57337 | 31.65840 | 25134 ft | 513 kts | 104° |
| 2026-05-07 20:31 | 59.56722 | 31.72688 | 25578 ft | 516 kts | 104° |
| 2026-05-07 20:31 | 59.56087 | 31.79721 | 26017 ft | 520 kts | 104° |
| 2026-05-07 20:32 | 59.55451 | 31.86688 | 26462 ft | 523 kts | 104° |
| 2026-05-07 20:32 | 59.54808 | 31.93699 | 26874 ft | 526 kts | 104° |
| 2026-05-07 20:32 | 59.54152 | 32.00780 | 27246 ft | 530 kts | 105° |
| 2026-05-07 20:32 | 59.53175 | 32.07823 | 27589 ft | 525 kts | 117° |
| 2026-05-07 20:33 | 59.51517 | 32.14000 | 27972 ft | 514 kts | 131° |
| 2026-05-07 20:33 | 59.49254 | 32.19314 | 28397 ft | 502 kts | 143° |
| 2026-05-07 20:33 | 59.46774 | 32.24087 | 29004 ft | 499 kts | 144° |
| 2026-05-07 20:33 | 59.44284 | 32.28802 | 29596 ft | 497 kts | 144° |
| 2026-05-07 20:34 | 59.41816 | 32.33483 | 30142 ft | 497 kts | 145° |
| 2026-05-07 20:34 | 59.39359 | 32.38181 | 30709 ft | 495 kts | 144° |
| 2026-05-07 20:34 | 59.36895 | 32.42912 | 31251 ft | 494 kts | 144° |
| 2026-05-07 20:34 | 59.34475 | 32.47572 | 31731 ft | 493 kts | 144° |
| 2026-05-07 20:35 | 59.32039 | 32.52268 | 32283 ft | 490 kts | 144° |
| 2026-05-07 20:35 | 59.29626 | 32.56918 | 32822 ft | 488 kts | 144° |
| 2026-05-07 20:35 | 59.27249 | 32.61492 | 33344 ft | 485 kts | 145° |
| 2026-05-07 20:35 | 59.24841 | 32.66119 | 33845 ft | 483 kts | 146° |
| 2026-05-07 20:36 | 59.22475 | 32.70649 | 34264 ft | 482 kts | 146° |
| 2026-05-07 20:36 | 59.20095 | 32.75201 | 34612 ft | 482 kts | 146° |
| 2026-05-07 20:36 | 59.17685 | 32.79786 | 34826 ft | 484 kts | 146° |
| 2026-05-07 20:36 | 59.15282 | 32.84348 | 34989 ft | 486 kts | 146° |
| 2026-05-07 20:37 | 59.12882 | 32.88909 | 34997 ft | 488 kts | 146° |
| 2026-05-07 20:37 | 59.08054 | 32.98064 | 35002 ft | 487 kts | 146° |
| 2026-05-07 20:38 | 59.03336 | 33.06977 | 34995 ft | 486 kts | 146° |
| 2026-05-07 20:38 | 58.98497 | 33.16063 | 35008 ft | 486 kts | 146° |
| 2026-05-07 20:39 | 58.93661 | 33.25106 | 34998 ft | 486 kts | 146° |
| 2026-05-07 20:39 | 58.88863 | 33.34054 | 34981 ft | 487 kts | 146° |
| 2026-05-07 20:40 | 58.83999 | 33.43095 | 34991 ft | 487 kts | 146° |
| 2026-05-07 20:40 | 58.79153 | 33.52061 | 34981 ft | 485 kts | 145° |
| 2026-05-07 20:41 | 58.74292 | 33.61006 | 34974 ft | 487 kts | 146° |
| 2026-05-07 20:41 | 58.69399 | 33.69975 | 34972 ft | 488 kts | 146° |
| 2026-05-07 20:42 | 58.64517 | 33.78890 | 34971 ft | 487 kts | 146° |
| 2026-05-07 20:42 | 58.59616 | 33.87796 | 34969 ft | 487 kts | 146° |
| 2026-05-07 20:43 | 58.54687 | 33.96727 | 34961 ft | 489 kts | 146° |
| 2026-05-07 20:43 | 58.49781 | 34.05576 | 34958 ft | 488 kts | 146° |
| 2026-05-07 20:44 | 58.44834 | 34.14456 | 34947 ft | 489 kts | 146° |
| 2026-05-07 20:44 | 58.39878 | 34.23317 | 34947 ft | 492 kts | 146° |
| 2026-05-07 20:45 | 58.34972 | 34.32069 | 34943 ft | 490 kts | 146° |
| 2026-05-07 20:45 | 58.29981 | 34.40920 | 34944 ft | 491 kts | 146° |
| 2026-05-07 20:46 | 58.24985 | 34.49736 | 34948 ft | 492 kts | 146° |
| 2026-05-07 20:46 | 58.19986 | 34.58461 | 34942 ft | 489 kts | 147° |
| 2026-05-07 20:47 | 58.14808 | 34.66701 | 34940 ft | 488 kts | 149° |
| 2026-05-07 20:47 | 58.09629 | 34.74910 | 34937 ft | 488 kts | 149° |
| 2026-05-07 20:48 | 58.04459 | 34.83064 | 34933 ft | 488 kts | 148° |
| 2026-05-07 20:48 | 57.99231 | 34.91273 | 34921 ft | 489 kts | 148° |
| 2026-05-07 20:49 | 57.94027 | 34.99413 | 34940 ft | 488 kts | 148° |
| 2026-05-07 20:49 | 57.88820 | 35.07524 | 34939 ft | 488 kts | 148° |
| 2026-05-07 20:50 | 57.83579 | 35.15659 | 34913 ft | 488 kts | 148° |
| 2026-05-07 20:50 | 57.78388 | 35.23681 | 34906 ft | 489 kts | 148° |
| 2026-05-07 20:51 | 57.73143 | 35.31747 | 34904 ft | 489 kts | 148° |
| 2026-05-07 20:51 | 57.67925 | 35.39727 | 34893 ft | 487 kts | 149° |
| 2026-05-07 20:52 | 57.62445 | 35.46900 | 34890 ft | 480 kts | 156° |
| 2026-05-07 20:52 | 57.56626 | 35.52701 | 34888 ft | 472 kts | 163° |
| 2026-05-07 20:53 | 57.50560 | 35.57121 | 34887 ft | 466 kts | 169° |
| 2026-05-07 20:53 | 57.44406 | 35.60656 | 34882 ft | 464 kts | 169° |
| 2026-05-07 20:54 | 57.38295 | 35.64248 | 34875 ft | 465 kts | 168° |
| 2026-05-07 20:54 | 57.32254 | 35.68524 | 34873 ft | 473 kts | 164° |
| 2026-05-07 20:55 | 57.26379 | 35.74023 | 34871 ft | 479 kts | 157° |
| 2026-05-07 20:55 | 57.20749 | 35.80758 | 34789 ft | 486 kts | 152° |
| 2026-05-07 20:55 | 57.18016 | 35.84307 | 34513 ft | 485 kts | 152° |
| 2026-05-07 20:56 | 57.15288 | 35.87818 | 34235 ft | 485 kts | 152° |
| 2026-05-07 20:56 | 57.12512 | 35.91381 | 33953 ft | 480 kts | 152° |
| 2026-05-07 20:56 | 57.09800 | 35.94856 | 33667 ft | 476 kts | 152° |
| 2026-05-07 20:56 | 57.07100 | 35.98301 | 33395 ft | 477 kts | 152° |
| 2026-05-07 20:57 | 57.04374 | 36.01774 | 33114 ft | 477 kts | 152° |
| 2026-05-07 20:57 | 57.01667 | 36.05215 | 32843 ft | 477 kts | 152° |
| 2026-05-07 20:57 | 56.98943 | 36.08671 | 32574 ft | 478 kts | 152° |
| 2026-05-07 20:57 | 56.96217 | 36.12127 | 32246 ft | 478 kts | 152° |
| 2026-05-07 20:58 | 56.93468 | 36.15606 | 31828 ft | 478 kts | 152° |
| 2026-05-07 20:58 | 56.90754 | 36.19031 | 31307 ft | 479 kts | 152° |
| 2026-05-07 20:58 | 56.88009 | 36.22488 | 30698 ft | 480 kts | 152° |
| 2026-05-07 20:58 | 56.85283 | 36.25922 | 30062 ft | 480 kts | 152° |
| 2026-05-07 20:59 | 56.82565 | 36.29398 | 29420 ft | 481 kts | 149° |
| 2026-05-07 20:59 | 56.79924 | 36.33114 | 28774 ft | 484 kts | 146° |
| 2026-05-07 20:59 | 56.77343 | 36.37010 | 28101 ft | 485 kts | 146° |
| 2026-05-07 20:59 | 56.74725 | 36.40930 | 27544 ft | 483 kts | 146° |
| 2026-05-07 21:00 | 56.72115 | 36.44825 | 27375 ft | 486 kts | 146° |
| 2026-05-07 21:00 | 56.69496 | 36.48727 | 27299 ft | 487 kts | 146° |
| 2026-05-07 21:00 | 56.66891 | 36.52599 | 27214 ft | 486 kts | 145° |
| 2026-05-07 21:00 | 56.64308 | 36.56426 | 27105 ft | 485 kts | 145° |
| 2026-05-07 21:01 | 56.61676 | 36.60316 | 26991 ft | 484 kts | 146° |
| 2026-05-07 21:01 | 56.59088 | 36.64137 | 26879 ft | 482 kts | 145° |
| 2026-05-07 21:01 | 56.56601 | 36.68069 | 26713 ft | 472 kts | 143° |
| 2026-05-07 21:01 | 56.54212 | 36.71986 | 26687 ft | 457 kts | 143° |
| 2026-05-07 21:02 | 56.51876 | 36.75820 | 26494 ft | 447 kts | 143° |
| 2026-05-07 21:02 | 56.49599 | 36.79544 | 26173 ft | 440 kts | 143° |
| 2026-05-07 21:02 | 56.47361 | 36.83191 | 25846 ft | 433 kts | 143° |
| 2026-05-07 21:02 | 56.45132 | 36.86813 | 25488 ft | 428 kts | 143° |
| 2026-05-07 21:03 | 56.42945 | 36.90356 | 25135 ft | 422 kts | 143° |
| 2026-05-07 21:03 | 56.40781 | 36.93858 | 24792 ft | 417 kts | 143° |
| 2026-05-07 21:03 | 56.38633 | 36.97337 | 24219 ft | 407 kts | 143° |
| 2026-05-07 21:03 | 56.36563 | 37.00676 | 23737 ft | 396 kts | 143° |
| 2026-05-07 21:04 | 56.34524 | 37.03957 | 23488 ft | 394 kts | 143° |
| 2026-05-07 21:04 | 56.32504 | 37.07198 | 23059 ft | 392 kts | 144° |
| 2026-05-07 21:04 | 56.30222 | 37.09779 | 22584 ft | 377 kts | 166° |
| 2026-05-07 21:04 | 56.27713 | 37.10527 | 22202 ft | 361 kts | 187° |
| 2026-05-07 21:05 | 56.25322 | 37.09741 | 21833 ft | 349 kts | 201° |
| 2026-05-07 21:05 | 56.23022 | 37.08460 | 21478 ft | 346 kts | 201° |
| 2026-05-07 21:05 | 56.20735 | 37.07222 | 21118 ft | 343 kts | 201° |
| 2026-05-07 21:05 | 56.18454 | 37.06009 | 20762 ft | 341 kts | 200° |
| 2026-05-07 21:06 | 56.16193 | 37.04816 | 20402 ft | 338 kts | 200° |
| 2026-05-07 21:06 | 56.13945 | 37.03637 | 20062 ft | 335 kts | 200° |
| 2026-05-07 21:06 | 56.11727 | 37.02481 | 19721 ft | 333 kts | 200° |
| 2026-05-07 21:06 | 56.09514 | 37.01329 | 19368 ft | 331 kts | 200° |
| 2026-05-07 21:07 | 56.07312 | 37.00185 | 19012 ft | 329 kts | 200° |
| 2026-05-07 21:07 | 56.05178 | 36.99080 | 18692 ft | 327 kts | 200° |
| 2026-05-07 21:07 | 56.02996 | 36.97950 | 18333 ft | 326 kts | 200° |
| 2026-05-07 21:07 | 56.00848 | 36.96841 | 18005 ft | 324 kts | 200° |
| 2026-05-07 21:08 | 55.98697 | 36.95731 | 17664 ft | 322 kts | 200° |
| 2026-05-07 21:08 | 55.96547 | 36.94624 | 17328 ft | 321 kts | 200° |
| 2026-05-07 21:08 | 55.94381 | 36.93721 | 16992 ft | 322 kts | 193° |
| 2026-05-07 21:08 | 55.92142 | 36.93387 | 16735 ft | 322 kts | 185° |
| 2026-05-07 21:09 | 55.89845 | 36.93573 | 16689 ft | 332 kts | 180° |
| 2026-05-07 21:09 | 55.87564 | 36.93884 | 16380 ft | 332 kts | 180° |
| 2026-05-07 21:09 | 55.85252 | 36.94220 | 16049 ft | 330 kts | 180° |
| 2026-05-07 21:09 | 55.82988 | 36.94545 | 15713 ft | 327 kts | 180° |
| 2026-05-07 21:10 | 55.80735 | 36.94859 | 15383 ft | 325 kts | 180° |
| 2026-05-07 21:10 | 55.78507 | 36.95167 | 15042 ft | 323 kts | 180° |
| 2026-05-07 21:10 | 55.76288 | 36.95472 | 14922 ft | 313 kts | 180° |
| 2026-05-07 21:10 | 55.74178 | 36.95773 | 14899 ft | 301 kts | 179° |
| 2026-05-07 21:11 | 55.72117 | 36.96251 | 14819 ft | 296 kts | 176° |
| 2026-05-07 21:11 | 55.70078 | 36.96816 | 14448 ft | 299 kts | 176° |
| 2026-05-07 21:11 | 55.65997 | 36.97951 | 13687 ft | 298 kts | 175° |
| 2026-05-07 21:12 | 55.63962 | 36.98523 | 13358 ft | 295 kts | 176° |
| 2026-05-07 21:12 | 55.61930 | 36.99093 | 13041 ft | 293 kts | 176° |
| 2026-05-07 21:12 | 55.59925 | 36.99576 | 12726 ft | 288 kts | 180° |
| 2026-05-07 21:12 | 55.57969 | 36.99777 | 12461 ft | 284 kts | 184° |
| 2026-05-07 21:13 | 55.56007 | 36.99785 | 12157 ft | 282 kts | 185° |
| 2026-05-07 21:13 | 55.54035 | 36.99783 | 11810 ft | 281 kts | 185° |
| 2026-05-07 21:13 | 55.52092 | 36.99777 | 11498 ft | 278 kts | 185° |
| 2026-05-07 21:13 | 55.50186 | 36.99776 | 11209 ft | 276 kts | 185° |
| 2026-05-07 21:14 | 55.48286 | 36.99773 | 10932 ft | 273 kts | 185° |
| 2026-05-07 21:14 | 55.46390 | 36.99770 | 10641 ft | 271 kts | 185° |
| 2026-05-07 21:14 | 55.44519 | 36.99765 | 10345 ft | 270 kts | 185° |
| 2026-05-07 21:14 | 55.42630 | 36.99763 | 10045 ft | 269 kts | 186° |
| 2026-05-07 21:15 | 55.40786 | 36.99723 | 9757 ft | 266 kts | 188° |
| 2026-05-07 21:15 | 55.38967 | 36.99458 | 9466 ft | 263 kts | 191° |
| 2026-05-07 21:15 | 55.37149 | 36.99112 | 9171 ft | 261 kts | 192° |
| 2026-05-07 21:15 | 55.35344 | 36.98765 | 8876 ft | 260 kts | 192° |
| 2026-05-07 21:16 | 55.33551 | 36.98419 | 8588 ft | 259 kts | 192° |
| 2026-05-07 21:16 | 55.31776 | 36.98079 | 8291 ft | 258 kts | 192° |
| 2026-05-07 21:16 | 55.29982 | 36.97734 | 8002 ft | 256 kts | 192° |
| 2026-05-07 21:16 | 55.28236 | 36.97408 | 7916 ft | 245 kts | 192° |
| 2026-05-07 21:17 | 55.26548 | 36.97422 | 7909 ft | 245 kts | 179° |
| 2026-05-07 21:17 | 55.24888 | 36.98063 | 7915 ft | 247 kts | 171° |
| 2026-05-07 21:17 | 55.23244 | 36.98915 | 7925 ft | 248 kts | 169° |
| 2026-05-07 21:17 | 55.21592 | 36.99799 | 7921 ft | 248 kts | 169° |
| 2026-05-07 21:18 | 55.19928 | 37.00684 | 7918 ft | 248 kts | 170° |
| 2026-05-07 21:18 | 55.18293 | 37.01543 | 7919 ft | 247 kts | 170° |
| 2026-05-07 21:18 | 55.16640 | 37.02406 | 7920 ft | 247 kts | 170° |
| 2026-05-07 21:18 | 55.14993 | 37.03262 | 7918 ft | 246 kts | 170° |
| 2026-05-07 21:19 | 55.13369 | 37.04099 | 7919 ft | 246 kts | 170° |
| 2026-05-07 21:19 | 55.11728 | 37.05133 | 7912 ft | 252 kts | 158° |
| 2026-05-07 21:19 | 55.10298 | 37.06959 | 7921 ft | 259 kts | 143° |
| 2026-05-07 21:19 | 55.09011 | 37.09144 | 7926 ft | 259 kts | 140° |
| 2026-05-07 21:20 | 55.07742 | 37.11378 | 7925 ft | 259 kts | 140° |
| 2026-05-07 21:20 | 55.06480 | 37.13575 | 7926 ft | 259 kts | 141° |
| 2026-05-07 21:20 | 55.05202 | 37.15771 | 7931 ft | 258 kts | 141° |
| 2026-05-07 21:20 | 55.04035 | 37.18180 | 7918 ft | 264 kts | 123° |
| 2026-05-07 21:21 | 55.03324 | 37.21181 | 7932 ft | 270 kts | 110° |
| 2026-05-07 21:21 | 55.02823 | 37.24265 | 7955 ft | 257 kts | 108° |
| 2026-05-07 21:21 | 55.02383 | 37.27134 | 7926 ft | 240 kts | 108° |
| 2026-05-07 21:21 | 55.01939 | 37.29924 | 7931 ft | 236 kts | 109° |
| 2026-05-07 21:22 | 55.01487 | 37.32649 | 7935 ft | 236 kts | 110° |
| 2026-05-07 21:22 | 55.01189 | 37.35400 | 7909 ft | 225 kts | 93° |
| 2026-05-07 21:22 | 55.01344 | 37.38068 | 7917 ft | 221 kts | 78° |
| 2026-05-07 21:22 | 55.01713 | 37.40662 | 7932 ft | 221 kts | 74° |
| 2026-05-07 21:23 | 55.02128 | 37.43264 | 7938 ft | 221 kts | 74° |
| 2026-05-07 21:23 | 55.02530 | 37.45845 | 7940 ft | 220 kts | 74° |
| 2026-05-07 21:23 | 55.02933 | 37.48414 | 7936 ft | 220 kts | 68° |
| 2026-05-07 21:23 | 55.03751 | 37.50568 | 7926 ft | 214 kts | 34° |
| 2026-05-07 21:24 | 55.05032 | 37.51741 | 7937 ft | 202 kts | 4° |
| 2026-05-07 21:24 | 55.06379 | 37.51771 | 7940 ft | 189 kts | 337° |
| 2026-05-07 21:24 | 55.07547 | 37.50905 | 7945 ft | 181 kts | 321° |
| 2026-05-07 21:24 | 55.08617 | 37.49774 | 7941 ft | 180 kts | 320° |
| 2026-05-07 21:25 | 55.09695 | 37.48622 | 7940 ft | 181 kts | 320° |
| 2026-05-07 21:25 | 55.10771 | 37.47496 | 7934 ft | 181 kts | 321° |
| 2026-05-07 21:25 | 55.11863 | 37.46375 | 7933 ft | 181 kts | 321° |
| 2026-05-07 21:25 | 55.12951 | 37.45265 | 7934 ft | 181 kts | 321° |
| 2026-05-07 21:26 | 55.14041 | 37.44162 | 7936 ft | 181 kts | 321° |
| 2026-05-07 21:26 | 55.15132 | 37.43060 | 7937 ft | 181 kts | 321° |
| 2026-05-07 21:26 | 55.16217 | 37.41967 | 7934 ft | 180 kts | 321° |
| 2026-05-07 21:26 | 55.17312 | 37.40862 | 7934 ft | 181 kts | 321° |
| 2026-05-07 21:27 | 55.18403 | 37.39761 | 7935 ft | 181 kts | 321° |
| 2026-05-07 21:27 | 55.19492 | 37.38663 | 7931 ft | 180 kts | 321° |
| 2026-05-07 21:27 | 55.20583 | 37.37566 | 7784 ft | 182 kts | 323° |
| 2026-05-07 21:27 | 55.21770 | 37.36760 | 7515 ft | 188 kts | 338° |
| 2026-05-07 21:28 | 55.23089 | 37.36502 | 7278 ft | 193 kts | 351° |
| 2026-05-07 21:28 | 55.24440 | 37.36552 | 7062 ft | 194 kts | 353° |
| 2026-05-07 21:28 | 55.25782 | 37.36654 | 6843 ft | 193 kts | 353° |
| 2026-05-07 21:28 | 55.27123 | 37.36755 | 6640 ft | 192 kts | 353° |
| 2026-05-07 21:29 | 55.28454 | 37.36846 | 6428 ft | 191 kts | 353° |
| 2026-05-07 21:29 | 55.29784 | 37.36930 | 6212 ft | 190 kts | 353° |
| 2026-05-07 21:29 | 55.31095 | 37.37056 | 5996 ft | 191 kts | 357° |
| 2026-05-07 21:29 | 55.32422 | 37.37418 | 5835 ft | 192 kts | 4° |
| 2026-05-07 21:30 | 55.33722 | 37.37997 | 5833 ft | 194 kts | 7° |
| 2026-05-07 21:30 | 55.35017 | 37.38618 | 5866 ft | 194 kts | 7° |
| 2026-05-07 21:30 | 55.36309 | 37.39245 | 5895 ft | 194 kts | 7° |
| 2026-05-07 21:30 | 55.37615 | 37.39878 | 5906 ft | 194 kts | 7° |
| 2026-05-07 21:31 | 55.38916 | 37.40505 | 5909 ft | 194 kts | 7° |
| 2026-05-07 21:31 | 55.40235 | 37.41135 | 5904 ft | 195 kts | 7° |
| 2026-05-07 21:31 | 55.41535 | 37.41758 | 5695 ft | 194 kts | 7° |
| 2026-05-07 21:31 | 55.42824 | 37.42378 | 5457 ft | 192 kts | 7° |
| 2026-05-07 21:32 | 55.44116 | 37.42999 | 5239 ft | 192 kts | 7° |
| 2026-05-07 21:32 | 55.45397 | 37.43614 | 5030 ft | 190 kts | 7° |
| 2026-05-07 21:32 | 55.46666 | 37.44225 | 4828 ft | 188 kts | 7° |
| 2026-05-07 21:32 | 55.47919 | 37.44825 | 4631 ft | 187 kts | 7° |
| 2026-05-07 21:33 | 55.49169 | 37.45425 | 4424 ft | 186 kts | 7° |
| 2026-05-07 21:33 | 55.50429 | 37.46028 | 4220 ft | 185 kts | 7° |
| 2026-05-07 21:33 | 55.51669 | 37.46627 | 4021 ft | 184 kts | 7° |
| 2026-05-07 21:33 | 55.52903 | 37.47227 | 3820 ft | 184 kts | 7° |
| 2026-05-07 21:34 | 55.54126 | 37.47818 | 3616 ft | 183 kts | 7° |
| 2026-05-07 21:34 | 55.55341 | 37.48406 | 3417 ft | 182 kts | 7° |
| 2026-05-07 21:34 | 55.56558 | 37.48998 | 3253 ft | 180 kts | 7° |
| 2026-05-07 21:34 | 55.57773 | 37.49589 | 3181 ft | 180 kts | 7° |
| 2026-05-07 21:35 | 55.58993 | 37.50080 | 3060 ft | 175 kts | 353° |
| 2026-05-07 21:35 | 55.60140 | 37.49730 | 2902 ft | 167 kts | 333° |
| 2026-05-07 21:35 | 55.61217 | 37.48975 | 2690 ft | 165 kts | 331° |
| 2026-05-07 21:35 | 55.62289 | 37.48170 | 2472 ft | 178 kts | 328° |
| 2026-05-07 21:36 | 55.63202 | 37.46591 | 2213 ft | 188 kts | 288° |
| 2026-05-07 21:36 | 55.63263 | 37.44442 | 2132 ft | 172 kts | 253° |
| 2026-05-07 21:36 | 55.62832 | 37.42509 | 2154 ft | 167 kts | 248° |
| 2026-05-07 21:36 | 55.62415 | 37.40683 | 2121 ft | 167 kts | 248° |
| 2026-05-07 21:37 | 55.61985 | 37.38768 | 1884 ft | 166 kts | 249° |
| 2026-05-07 21:37 | 55.61573 | 37.36880 | 1745 ft | 165 kts | 248° |
| 2026-05-07 21:37 | 55.61149 | 37.34984 | 1556 ft | 168 kts | 247° |
| 2026-05-07 21:37 | 55.60706 | 37.33062 | 1089 ft | 168 kts | 246° |
| 2026-05-07 21:38 | 55.60281 | 37.31203 | 952 ft | 164 kts | 246° |
| 2026-05-07 21:38 | 55.59874 | 37.29332 | 772 ft | 162 kts | 247° |
| 2026-05-07 21:38 | 55.59474 | 37.27538 | 671 ft | 137 kts | 247° |
| 2026-05-07 21:38 | 55.59251 | 37.26538 | 661 ft | 39 kts | 247° |
| 2026-05-07 21:39 | 55.59226 | 37.26433 | 659 ft | 0 kts | 247° |